This is the latest recevied weather packets stored in our database for station/object W1ERB-13. If no packets are shown the sender has not sent any weather packets the latest 10 day(s).
| Time | Temp. | Humidity | Pressure | Rain* | Wind** | Luminosity | Snow |
|---|---|---|---|---|---|---|---|
| 1777907704 | 18.33° C | 33% | 1011.6 hPa | 0 mm | - | 754 W/m² | - |
| 1777907399 | 18.89° C | 31% | 1011 hPa | 0 mm | - | 702 W/m² | - |
| 1777907096 | 18.89° C | 33% | 1011 hPa | 0 mm | - | 787 W/m² | - |
| 1777906794 | 18.33° C | 34% | 1011.1 hPa | 0 mm | - | 806 W/m² | - |
| 1777906491 | 17.78° C | 35% | 1011.1 hPa | 0 mm | - | 711 W/m² | - |
| 1777906187 | 18.33° C | 35% | 1011.1 hPa | 0 mm | - | 709 W/m² | - |
| 1777905883 | 18.33° C | 37% | 1011.2 hPa | 0 mm | - | 759 W/m² | - |
| 1777905580 | 18.33° C | 34% | 1011.2 hPa | 0 mm | - | 801 W/m² | - |
| 1777905277 | 18.33° C | 35% | 1011.3 hPa | 0 mm | - | 808 W/m² | - |
| 1777904974 | 18.33° C | 33% | 1011.2 hPa | 0 mm | - | 793 W/m² | - |
| 1777904672 | 17.78° C | 34% | 1011.3 hPa | 0 mm | - | 783 W/m² | - |
| 1777904368 | 17.78° C | 35% | 1011.3 hPa | 0 mm | - | 760 W/m² | - |
| 1777904065 | 17.22° C | 36% | 1011.3 hPa | 0 mm | - | 710 W/m² | - |
| 1777903762 | 17.22° C | 35% | 1011.1 hPa | 0 mm | - | 722 W/m² | - |
| 1777903458 | 17.78° C | 36% | 1011.2 hPa | 0 mm | - | 714 W/m² | - |
| 1777903155 | 17.78° C | 39% | 1011.6 hPa | 0 mm | - | 662 W/m² | - |
| 1777902851 | 17.22° C | 38% | 1011.7 hPa | 0 mm | - | 676 W/m² | - |
| 1777902549 | 17.78° C | 39% | 1011.7 hPa | 0 mm | - | 669 W/m² | - |
| 1777902245 | 16.67° C | 38% | 1011.8 hPa | 0 mm | - | 648 W/m² | - |
| 1777901944 | 16.67° C | 39% | 1011.9 hPa | 0 mm | - | 646 W/m² | - |
| 1777901641 | 16.67° C | 42% | 1012 hPa | 0 mm | - | 645 W/m² | - |
| 1777901338 | 16.67° C | 42% | 1012.1 hPa | 0 mm | - | 649 W/m² | - |
| 1777901035 | 16.67° C | 44% | 1011.9 hPa | 0 mm | - | 645 W/m² | - |
| 1777900733 | 15° C | 46% | 1012.1 hPa | 0 mm | - | 622 W/m² | - |
| 1777900429 | 15.56° C | 46% | 1012 hPa | 0 mm | - | 597 W/m² | - |
* Rain latest hour (hover to see other rain measurements)
** Current wind speed in m/s (hover to see current wind gust speed)